Terminal Aerodrome Forecast
Issued by NWS

Home | Current Version | Previous Version | Graphics & Text | Print | Product List | Glossary On
Versions: 1 2 3 4 5 6 7 8 9 10 11 12 13 14 15 16
000
FTUS43 KBIS 290300 AAA
TAFDIK
TAF AMD
KDIK 290340Z 2904/2924 31018G26KT 6SM BR OVC012
     FM290700 32014KT 6SM BR OVC012
     FM291500 VRB05KT P6SM SCT012=

USA.gov is the U.S. government's official web portal to all federal, state and local government web resources and services.